Time;durP1;ratioP1;P1;durP2;ratioP2;P2;SDS_P1;SDS_P2;PMS_P1;PMS_P2;Temp;Humidity;BMP_temperature;BMP_pressure;BME280_temperature;BME280_humidity;BME280_pressure;Samples;Min_cycle;Max_cycle;Signal;HPM_P1;HPM_P2
2022/11/08 00:02:22;;;;;;;12.63;4.00;;;13.30;99.90;;;12.66;100.00;100012.34;4090248;29;20058;-76
2022/11/08 00:04:24;;;;;;;13.63;3.70;;;13.30;99.90;;;12.59;100.00;100003.53;4090645;29;20039;-76
2022/11/08 00:15:44;;;;;;;16.30;3.78;;;13.30;99.90;;;12.58;100.00;99982.53;4090521;29;20412;-76
2022/11/08 00:17:45;;;;;;;15.90;5.05;;;13.30;99.90;;;12.58;100.00;99982.53;4090238;29;20040;-76
2022/11/08 00:19:46;;;;;;;16.05;3.92;;;13.30;99.90;;;12.60;100.00;99991.13;4096725;29;20059;-76
2022/11/08 00:21:47;;;;;;;9.70;4.45;;;13.30;99.90;;;12.50;100.00;99977.38;4105220;29;20039;-76
2022/11/08 00:23:47;;;;;;;14.15;4.57;;;13.30;99.90;;;12.52;100.00;99986.75;4090347;29;20027;-76
2022/11/08 00:25:54;;;;;;;12.02;3.75;;;13.20;99.90;;;12.50;100.00;99987.94;4104735;29;20407;-76
2022/11/08 00:27:56;;;;;;;15.80;4.53;;;13.20;99.90;;;12.53;100.00;99984.94;4105045;29;20032;-76
2022/11/08 00:29:56;;;;;;;18.15;4.00;;;13.20;99.90;;;12.63;100.00;99969.59;4088939;29;20135;-76
2022/11/08 00:31:57;;;;;;;15.57;4.53;;;13.30;99.90;;;12.63;100.00;99982.81;4105009;28;20031;-76
2022/11/08 00:33:58;;;;;;;18.10;4.78;;;13.30;99.90;;;12.65;100.00;99984.25;4090022;29;20023;-75
2022/11/08 00:36:00;;;;;;;16.70;4.40;;;13.30;99.90;;;12.67;100.00;99970.81;4090261;29;20055;-76
2022/11/08 00:38:03;;;;;;;15.63;4.55;;;13.40;99.90;;;12.67;100.00;99974.28;4090214;29;20502;-76
2022/11/08 00:40:04;;;;;;;16.92;3.50;;;13.40;99.90;;;12.63;100.00;99973.03;4088107;29;20059;-76
2022/11/08 00:42:05;;;;;;;15.77;4.10;;;13.40;99.90;;;12.65;100.00;99962.28;4089879;29;20075;-76
2022/11/08 00:44:06;;;;;;;15.68;4.13;;;13.40;99.90;;;12.71;100.00;99959.69;4088599;29;20024;-76
2022/11/08 00:46:08;;;;;;;20.75;4.55;;;13.40;99.90;;;12.86;100.00;99951.69;4088604;29;20531;-75
2022/11/08 00:48:09;;;;;;;15.48;3.92;;;13.50;99.90;;;12.81;100.00;99954.09;4104607;29;20042;-76
2022/11/08 00:50:09;;;;;;;20.70;4.70;;;13.60;99.90;;;12.75;100.00;99944.25;4089761;29;20035;-76
2022/11/08 00:52:10;;;;;;;12.07;3.78;;;13.50;99.90;;;12.79;100.00;99937.56;4104642;29;20023;-75
2022/11/08 00:54:18;;;;;;;10.13;3.22;;;13.60;99.90;;;12.90;100.00;99936.25;4088734;29;20071;-76
2022/11/08 00:56:18;;;;;;;16.88;4.28;;;13.60;99.90;;;12.93;100.00;99936.66;4089682;29;20024;-75
2022/11/08 00:58:19;;;;;;;10.60;2.70;;;13.70;99.90;;;12.96;100.00;99936.28;4104082;29;20073;-76
2022/11/08 01:00:20;;;;;;;12.75;3.65;;;13.70;99.90;;;13.04;100.00;99933.53;4088858;29;20035;-76
2022/11/08 01:02:21;;;;;;;8.93;2.75;;;13.70;99.90;;;13.12;100.00;99924.63;4104721;29;20110;-75
2022/11/08 01:04:22;;;;;;;12.98;3.95;;;13.80;99.90;;;13.39;100.00;99930.94;4088484;29;20031;-76
2022/11/08 01:06:24;;;;;;;11.40;2.97;;;13.90;99.90;;;13.49;100.00;99931.41;4089467;29;20377;-76
2022/11/08 01:08:26;;;;;;;10.38;2.40;;;14.10;99.90;;;13.66;100.00;99928.25;4104713;29;20460;-76
2022/11/08 01:10:27;;;;;;;9.43;3.25;;;14.20;99.90;;;13.73;100.00;99942.38;4089844;29;20038;-76
2022/11/08 01:12:28;;;;;;;12.43;3.83;;;14.40;99.90;;;13.90;100.00;99973.84;4089598;29;20024;-76
2022/11/08 01:14:29;;;;;;;12.40;3.40;;;14.50;99.90;;;14.08;100.00;99993.53;4089218;29;20035;-76
2022/11/08 01:16:32;;;;;;;6.45;2.60;;;14.60;99.90;;;14.26;100.00;99998.31;4104428;29;20023;-76
2022/11/08 01:18:33;;;;;;;6.90;1.45;;;14.80;99.90;;;14.19;100.00;99995.63;4104343;29;20031;-76
2022/11/08 01:20:44;;;;;;;3.00;0.70;;;14.80;99.90;;;14.05;100.00;99991.28;4089580;29;20038;-76
2022/11/08 01:22:45;;;;;;;3.95;1.13;;;14.80;99.90;;;13.81;100.00;100005.84;4089234;29;20042;-76
2022/11/08 01:24:46;;;;;;;3.55;1.00;;;14.70;99.90;;;13.71;100.00;100002.69;4104275;29;20055;-76
2022/11/08 01:26:49;;;;;;;4.03;0.60;;;14.60;99.90;;;13.59;100.00;100003.44;4104052;29;20479;-76
2022/11/08 01:28:50;;;;;;;4.53;1.05;;;14.50;99.90;;;13.44;100.00;99982.31;4087774;29;20594;-75
2022/11/08 01:30:51;;;;;;;2.60;0.68;;;14.30;99.90;;;13.32;100.00;100004.25;4072272;29;20047;-76
2022/11/08 01:32:52;;;;;;;3.67;0.57;;;14.20;99.90;;;13.13;100.00;99992.47;4103963;29;20020;-76
2022/11/08 01:34:53;;;;;;;2.30;0.82;;;14.10;99.90;;;13.06;100.00;100010.91;4103850;29;20042;-76
2022/11/08 01:36:54;;;;;;;3.90;0.95;;;14.00;99.90;;;13.05;100.00;100009.28;4089172;29;20397;-76
2022/11/08 01:38:56;;;;;;;4.30;0.60;;;13.90;99.90;;;12.90;100.00;100011.19;4089155;29;20082;-76
2022/11/08 01:40:57;;;;;;;1.77;0.93;;;13.80;99.90;;;12.85;100.00;100016.22;4104029;29;20443;-76
2022/11/08 01:42:58;;;;;;;2.47;0.80;;;13.70;99.90;;;12.77;100.00;100013.69;4087897;29;20039;-76
2022/11/08 01:45:05;;;;;;;4.25;0.70;;;13.70;99.90;;;12.76;100.00;100017.34;4103651;29;20023;-76
2022/11/08 01:47:06;;;;;;;4.07;0.90;;;13.60;99.90;;;12.66;100.00;100016.84;4076560;29;20373;-76
2022/11/08 01:49:33;;;;;;;6.05;0.70;;;13.50;99.90;;;12.51;100.00;100016.88;4072356;29;20031;-75
2022/11/08 01:51:45;;;;;;;3.88;1.15;;;13.40;99.90;;;12.42;100.00;100019.81;4087365;28;20028;-76
2022/11/08 01:53:46;;;;;;;5.35;1.05;;;13.30;99.90;;;12.37;100.00;100019.53;4089487;29;20614;-76
2022/11/08 01:55:48;;;;;;;4.03;0.98;;;13.20;99.90;;;12.31;100.00;100015.78;4087727;29;20034;-76
2022/11/08 01:58:02;;;;;;;9.43;1.15;;;13.20;99.90;;;12.30;100.00;100003.59;4088740;29;20055;-76
2022/11/08 02:00:09;;;;;;;3.80;0.55;;;13.10;99.90;;;12.26;100.00;100017.34;4088888;29;20070;-76
2022/11/08 02:02:11;;;;;;;4.07;0.55;;;13.10;99.90;;;12.23;100.00;100031.78;4087824;29;20031;-76
2022/11/08 02:04:14;;;;;;;5.10;0.90;;;13.10;99.90;;;12.21;100.00;100024.00;4087558;29;20119;-76
2022/11/08 02:06:15;;;;;;;6.68;1.27;;;13.00;99.90;;;12.19;100.00;100014.63;4087380;29;20062;-76
2022/11/08 02:08:39;;;;;;;1.83;0.57;;;13.00;99.90;;;12.18;100.00;100013.81;4088777;29;20032;-76
2022/11/08 02:10:45;;;;;;;5.97;0.87;;;13.00;99.90;;;12.12;100.00;100033.06;4087616;29;20507;-76
2022/11/08 02:12:46;;;;;;;9.85;1.15;;;13.00;99.90;;;12.06;100.00;100014.47;4087356;29;20060;-76
2022/11/08 02:14:47;;;;;;;4.70;1.48;;;12.90;99.90;;;12.07;100.00;100016.91;4087429;29;20120;-76
2022/11/08 02:16:48;;;;;;;6.55;1.00;;;12.90;99.90;;;12.02;100.00;100026.41;4088651;29;20032;-76
2022/11/08 02:18:49;;;;;;;4.78;0.73;;;12.90;99.90;;;12.01;100.00;100033.50;4087813;29;20036;-76
2022/11/08 02:21:18;;;;;;;7.05;0.88;;;12.80;99.90;;;11.96;100.00;100025.31;4088403;29;20055;-76
2022/11/08 02:24:02;;;;;;;3.63;0.98;;;12.80;99.90;;;12.01;100.00;100040.59;4087526;29;20039;-76
2022/11/08 02:26:02;;;;;;;5.68;1.25;;;12.80;99.90;;;11.99;100.00;100047.91;4087849;29;20070;-76
2022/11/08 02:28:03;;;;;;;6.65;1.40;;;12.80;99.90;;;11.97;100.00;100031.44;4087232;29;20031;-76
2022/11/08 02:30:05;;;;;;;6.10;0.90;;;12.80;99.90;;;11.92;100.00;100024.03;4087185;29;20110;-76
2022/11/08 02:32:06;;;;;;;7.93;1.83;;;12.70;99.90;;;11.93;100.00;100032.78;4088274;29;20491;-75
2022/11/08 02:34:07;;;;;;;5.90;0.90;;;12.70;99.90;;;11.87;100.00;100021.13;4088519;29;20099;-76
2022/11/08 02:36:16;;;;;;;8.00;1.40;;;12.70;99.90;;;11.85;100.00;100001.16;4088479;29;20024;-76
2022/11/08 02:38:18;;;;;;;8.20;1.60;;;12.70;99.90;;;11.88;100.00;100008.72;4087185;29;20028;-76
2022/11/08 02:40:19;;;;;;;11.45;2.53;;;12.70;99.90;;;11.88;100.00;100020.13;4087047;29;20039;-76
2022/11/08 02:42:20;;;;;;;11.75;2.58;;;12.60;99.90;;;11.84;100.00;100013.56;4087367;29;20028;-75
2022/11/08 02:44:21;;;;;;;8.70;3.33;;;12.70;99.90;;;11.87;100.00;100009.72;4072093;29;20425;-76
2022/11/08 02:46:22;;;;;;;10.80;2.45;;;12.70;99.90;;;11.87;100.00;100039.63;4088099;29;20028;-76
2022/11/08 02:48:23;;;;;;;10.63;2.80;;;12.60;99.90;;;11.86;100.00;100018.63;4071172;29;20492;-76
2022/11/08 02:50:24;;;;;;;7.18;2.20;;;12.70;99.90;;;11.86;100.00;100021.28;4087238;29;20024;-76
2022/11/08 02:52:25;;;;;;;5.20;1.60;;;12.60;99.90;;;11.98;100.00;100015.38;4088523;29;20030;-76
2022/11/08 02:54:25;;;;;;;7.07;1.38;;;12.70;99.90;;;11.91;100.00;100011.00;4086578;29;20058;-76
2022/11/08 02:56:26;;;;;;;7.72;1.40;;;12.70;99.90;;;11.90;100.00;100010.19;4087820;29;20035;-76
2022/11/08 02:58:27;;;;;;;4.65;0.90;;;12.70;99.90;;;11.91;100.00;100006.53;4088177;29;20068;-76
2022/11/08 03:00:29;;;;;;;7.63;1.20;;;12.70;99.90;;;11.94;100.00;100008.81;4071186;29;20036;-76
2022/11/08 03:02:30;;;;;;;5.55;1.02;;;12.70;99.90;;;11.90;100.00;100010.19;4090297;29;20034;-76
2022/11/08 03:04:30;;;;;;;4.10;0.75;;;12.70;99.90;;;11.92;100.00;100016.09;4093236;29;20432;-76
2022/11/08 03:06:31;;;;;;;7.43;0.98;;;12.70;99.90;;;12.01;100.00;100025.56;4092209;29;20110;-76
2022/11/08 03:08:32;;;;;;;7.15;1.20;;;12.70;99.90;;;12.00;100.00;100023.13;4093641;29;20024;-75
2022/11/08 03:10:33;;;;;;;7.13;1.20;;;12.80;99.90;;;12.04;100.00;100030.50;4093741;29;20028;-76
2022/11/08 03:12:34;;;;;;;2.90;0.93;;;12.80;99.90;;;12.16;100.00;100044.91;4093262;29;20032;-76
2022/11/08 03:14:35;;;;;;;3.45;0.80;;;12.90;99.90;;;12.15;100.00;100016.84;4092108;29;20043;-75
2022/11/08 03:16:36;;;;;;;4.40;0.80;;;12.80;99.90;;;12.08;100.00;100008.00;4093522;29;20044;-75
2022/11/08 03:18:37;;;;;;;4.70;1.20;;;12.80;99.90;;;12.15;100.00;99982.47;4098804;29;20031;-76
2022/11/08 03:20:37;;;;;;;3.13;0.85;;;12.80;99.90;;;12.19;100.00;100019.91;4093272;29;20036;-75
2022/11/08 03:22:38;;;;;;;7.85;1.48;;;12.80;99.90;;;12.18;100.00;100020.94;4093303;29;20023;-75
2022/11/08 03:24:39;;;;;;;4.95;1.55;;;12.80;99.90;;;12.19;100.00;100007.53;4108179;29;20035;-75
2022/11/08 03:26:40;;;;;;;5.22;1.17;;;12.80;99.90;;;12.15;100.00;100019.47;4092046;29;20035;-75
2022/11/08 03:28:41;;;;;;;5.15;0.77;;;12.80;99.90;;;12.14;100.00;100001.97;4093031;29;20024;-75
2022/11/08 03:30:42;;;;;;;6.28;1.30;;;12.80;99.90;;;12.06;100.00;100017.13;4107692;28;20040;-75
2022/11/08 03:32:45;;;;;;;6.20;1.35;;;12.80;99.90;;;12.08;100.00;100015.09;4092108;29;20106;-76
2022/11/08 03:34:46;;;;;;;5.80;1.13;;;12.70;99.90;;;12.04;100.00;100013.81;4076190;29;20115;-76
2022/11/08 03:36:47;;;;;;;5.38;0.95;;;12.70;99.90;;;12.02;100.00;100013.19;4092102;29;20523;-75
2022/11/08 03:38:49;;;;;;;3.97;0.65;;;12.70;99.90;;;12.10;100.00;99999.88;4093175;29;20035;-75
2022/11/08 03:40:50;;;;;;;2.63;0.77;;;12.80;99.90;;;12.06;100.00;100012.66;4093424;29;20032;-75
2022/11/08 03:42:52;;;;;;;3.25;0.70;;;12.80;99.90;;;12.03;100.00;100020.13;4093005;29;20028;-76
2022/11/08 03:44:52;;;;;;;8.05;0.68;;;12.80;99.90;;;11.98;100.00;100004.78;4094122;29;20032;-75
2022/11/08 03:46:53;;;;;;;9.45;1.30;;;12.70;99.90;;;12.05;100.00;100016.28;4092795;29;20083;-76
2022/11/08 03:48:54;;;;;;;8.57;1.10;;;12.80;99.90;;;12.05;100.00;100026.03;4076156;29;20124;-76
2022/11/08 03:50:55;;;;;;;10.50;1.20;;;12.70;99.90;;;12.13;100.00;100023.28;4092965;29;20031;-76
2022/11/08 03:52:56;;;;;;;7.15;1.35;;;12.80;99.90;;;12.14;100.00;100011.72;4091973;29;20024;-76
2022/11/08 03:54:57;;;;;;;6.57;1.38;;;12.80;99.90;;;12.14;100.00;99988.75;4091833;29;20035;-76
2022/11/08 03:56:58;;;;;;;10.43;1.80;;;12.80;99.90;;;12.20;100.00;100003.88;4093091;29;20046;-75
2022/11/08 03:58:58;;;;;;;8.13;1.05;;;12.80;99.90;;;12.14;100.00;100001.97;4091737;29;20032;-75
2022/11/08 04:01:05;;;;;;;8.55;1.92;;;12.90;99.90;;;12.19;100.00;100006.69;4092970;29;20040;-75
2022/11/08 04:03:06;;;;;;;11.48;1.48;;;12.90;99.90;;;12.16;100.00;100018.47;4092853;29;20500;-76
2022/11/08 04:05:10;;;;;;;7.03;1.10;;;12.90;99.90;;;12.19;100.00;100006.69;4075932;29;20036;-76
2022/11/08 04:07:10;;;;;;;9.03;1.70;;;12.90;99.90;;;12.21;100.00;100018.72;4091749;29;20032;-76
2022/11/08 04:09:11;;;;;;;15.15;2.03;;;12.90;99.90;;;12.15;100.00;99998.34;4091915;29;20028;-76
2022/11/08 04:15:54;;;;;;;12.05;2.00;;;12.90;99.90;;;12.14;100.00;99991.41;4090440;29;20400;-76
2022/11/08 04:22:41;;;;;;;11.07;1.88;;;12.90;99.90;;;12.07;100.00;99966.69;4089248;29;20167;-76
2022/11/08 04:24:42;;;;;;;21.23;2.58;;;12.80;99.90;;;12.08;100.00;99968.34;4090377;29;20032;-75
2022/11/08 04:26:42;;;;;;;16.67;2.88;;;12.80;99.90;;;12.18;100.00;99958.28;4089110;29;20036;-76
2022/11/08 04:28:43;;;;;;;15.68;3.03;;;12.80;99.90;;;12.07;100.00;99971.97;4073035;29;20038;-76
2022/11/08 04:30:44;;;;;;;25.38;3.80;;;12.80;99.90;;;12.10;100.00;99965.50;4089758;29;20079;-76
2022/11/08 04:32:45;;;;;;;13.95;2.75;;;12.80;99.90;;;12.10;100.00;99971.59;4089092;29;20495;-75
2022/11/08 04:34:46;;;;;;;16.00;2.92;;;12.80;99.90;;;12.13;100.00;99976.53;4073227;29;20116;-76
2022/11/08 04:36:47;;;;;;;21.70;3.55;;;12.80;99.90;;;12.13;100.00;99968.59;4090286;29;20035;-75
2022/11/08 04:38:50;;;;;;;20.55;2.63;;;12.80;99.90;;;12.19;100.00;99977.59;4088794;29;20045;-75
2022/11/08 04:40:50;;;;;;;22.17;3.53;;;12.80;99.90;;;12.11;100.00;99981.19;4090137;29;20040;-75
2022/11/08 04:42:51;;;;;;;22.33;2.85;;;12.80;99.90;;;12.11;100.00;99983.84;4089846;29;20385;-76
2022/11/08 04:44:52;;;;;;;22.02;3.28;;;12.80;99.90;;;12.12;100.00;99980.19;4073963;29;20437;-76
2022/11/08 04:46:53;;;;;;;18.90;2.35;;;12.80;99.90;;;12.04;100.00;99982.09;4072727;29;20084;-76
2022/11/08 04:48:57;;;;;;;20.83;2.65;;;12.80;99.90;;;12.04;100.00;99982.09;4090144;29;20035;-75
2022/11/08 04:51:05;;;;;;;22.38;3.75;;;12.80;99.90;;;12.05;100.00;99983.75;4072901;29;20028;-75
2022/11/08 04:53:06;;;;;;;23.67;2.95;;;12.70;99.90;;;11.98;100.00;99988.09;4089895;29;20036;-76
2022/11/08 04:55:08;;;;;;;17.30;2.85;;;12.70;99.90;;;12.00;100.00;99986.94;4089708;29;20419;-76
2022/11/08 04:57:10;;;;;;;18.77;4.10;;;12.70;99.90;;;11.94;100.00;99976.28;4073044;29;20032;-76
2022/11/08 04:59:11;;;;;;;23.17;3.50;;;12.70;99.90;;;11.96;100.00;99988.31;4072757;29;20051;-76
2022/11/08 05:01:16;;;;;;;22.98;3.25;;;12.70;99.90;;;11.94;100.00;99997.44;4072803;29;20420;-76
2022/11/08 05:03:17;;;;;;;20.92;4.72;;;12.60;99.90;;;11.88;100.00;99996.34;4088546;29;20032;-76
2022/11/08 05:05:18;;;;;;;30.95;5.18;;;12.60;99.90;;;11.98;100.00;100003.97;4088871;29;20090;-76
2022/11/08 05:07:19;;;;;;;27.25;3.65;;;12.70;99.90;;;12.05;100.00;100012.81;4088624;29;20032;-76
2022/11/08 05:09:20;;;;;;;27.67;4.57;;;12.70;99.90;;;12.07;100.00;100008.97;4088234;29;20044;-76
2022/11/08 05:11:23;;;;;;;21.27;4.43;;;12.70;99.90;;;12.05;100.00;100005.72;4072751;29;20032;-76
2022/11/08 05:13:24;;;;;;;26.25;4.15;;;12.70;99.90;;;12.02;100.00;100015.81;4088307;29;20518;-76
2022/11/08 05:15:25;;;;;;;33.00;5.13;;;12.70;99.90;;;11.96;100.00;100004.16;4088378;29;20032;-75
2022/11/08 05:17:25;;;;;;;27.33;4.35;;;12.70;99.90;;;12.01;100.00;100008.88;4088453;29;20484;-76
2022/11/08 05:24:09;;;;;;;26.85;6.53;;;12.70;99.90;;;12.02;100.00;100019.28;4089360;29;20043;-76
2022/11/08 05:26:11;;;;;;;27.15;3.90;;;12.70;99.90;;;12.01;100.00;100015.00;4088943;29;20514;-76
2022/11/08 05:28:12;;;;;;;26.25;5.07;;;12.70;99.90;;;11.92;100.00;100005.53;4087924;29;20036;-75
2022/11/08 05:30:13;;;;;;;27.42;5.30;;;12.70;99.90;;;12.00;100.00;100013.38;4087985;29;20131;-75
2022/11/08 05:32:14;;;;;;;25.05;5.10;;;12.70;99.90;;;11.94;100.00;100014.13;4087983;29;20523;-75
2022/11/08 05:34:15;;;;;;;22.65;5.05;;;12.70;99.90;;;11.99;100.00;100014.38;4089340;29;20031;-75
2022/11/08 05:36:15;;;;;;;24.38;4.95;;;12.70;99.90;;;11.93;100.00;100012.47;4088187;29;20027;-75
2022/11/08 05:38:17;;;;;;;30.02;5.15;;;12.70;99.90;;;11.92;100.00;100010.81;4089096;29;20543;-75
2022/11/08 05:40:18;;;;;;;30.00;4.15;;;12.70;99.90;;;11.90;100.00;100002.25;4087890;29;20055;-76
2022/11/08 05:42:19;;;;;;;39.53;5.25;;;12.60;99.90;;;11.91;100.00;100003.06;4072229;29;20060;-76
2022/11/08 05:44:20;;;;;;;26.67;5.32;;;12.60;99.90;;;11.97;100.00;100003.19;4071904;29;20036;-75
2022/11/08 05:46:23;;;;;;;38.63;5.68;;;12.70;99.90;;;11.95;100.00;100001.69;4081935;29;20118;-76
2022/11/08 05:48:24;;;;;;;21.33;4.53;;;12.70;99.90;;;12.01;100.00;100017.66;4088873;29;20083;-75
2022/11/08 05:50:24;;;;;;;25.55;4.55;;;12.70;99.90;;;12.06;100.00;100006.53;4088183;29;20476;-75
2022/11/08 05:52:25;;;;;;;32.67;5.90;;;12.70;99.90;;;12.11;100.00;100010.28;4089007;29;20123;-75
2022/11/08 05:54:26;;;;;;;21.65;3.90;;;12.70;99.90;;;12.05;100.00;100002.25;4088952;29;20031;-75
2022/11/08 05:56:27;;;;;;;23.88;4.75;;;12.70;99.90;;;12.00;100.00;99992.25;4087780;29;20024;-76
2022/11/08 05:58:30;;;;;;;32.60;5.05;;;12.70;99.90;;;12.03;100.00;99997.16;4087351;29;20143;-75
2022/11/08 06:00:31;;;;;;;25.58;5.30;;;12.70;99.90;;;11.95;100.00;99991.94;4089018;29;20059;-75
2022/11/08 06:02:32;;;;;;;27.67;4.68;;;12.70;99.90;;;12.09;100.00;100001.72;4087786;29;20127;-75
2022/11/08 06:04:33;;;;;;;31.90;4.97;;;12.70;99.90;;;12.06;100.00;99988.84;4089043;29;20028;-76
2022/11/08 06:06:34;;;;;;;32.60;4.68;;;12.70;99.90;;;12.03;100.00;100002.44;4088799;29;20091;-76
2022/11/08 06:08:35;;;;;;;23.88;4.45;;;12.70;99.90;;;12.02;100.00;100006.06;4088897;29;20020;-76
2022/11/08 06:10:36;;;;;;;26.50;4.13;;;12.70;99.90;;;12.02;100.00;99990.22;4071650;29;20032;-75
2022/11/08 06:12:37;;;;;;;30.58;5.90;;;12.70;99.90;;;12.00;100.00;99994.88;4087346;29;20527;-75
2022/11/08 06:14:38;;;;;;;26.90;4.55;;;12.70;99.90;;;11.96;100.00;99983.03;4087402;29;20456;-76
2022/11/08 06:16:38;;;;;;;25.73;4.10;;;12.70;99.90;;;12.04;100.00;99992.66;4072121;29;20024;-75
2022/11/08 06:18:40;;;;;;;26.30;5.07;;;12.70;99.90;;;12.09;100.00;99991.13;4088830;29;20034;-76
2022/11/08 06:20:41;;;;;;;25.90;4.55;;;12.70;99.90;;;11.97;100.00;99983.84;4071820;29;20464;-76
2022/11/08 06:22:42;;;;;;;28.10;5.40;;;12.70;99.90;;;11.98;100.00;99983.66;4071568;29;20043;-76
2022/11/08 06:24:43;;;;;;;32.20;4.90;;;12.70;99.90;;;11.97;100.00;99975.91;4088523;29;20123;-76
2022/11/08 06:26:44;;;;;;;27.38;4.80;;;12.70;99.90;;;11.96;100.00;99976.91;4088780;29;20027;-75
2022/11/08 06:28:45;;;;;;;19.83;3.65;;;12.70;99.90;;;12.00;100.00;99988.78;4071305;29;20592;-75
2022/11/08 06:30:46;;;;;;;26.42;4.80;;;12.70;99.90;;;12.01;100.00;99993.03;4087092;29;20048;-75
2022/11/08 06:32:48;;;;;;;25.45;4.13;;;12.70;99.90;;;11.98;100.00;99981.00;4088305;29;20102;-76
2022/11/08 06:34:49;;;;;;;21.70;4.68;;;12.70;99.90;;;12.03;100.00;99980.47;4088464;29;20439;-75
2022/11/08 06:36:51;;;;;;;27.48;4.65;;;12.70;99.90;;;12.09;100.00;99977.09;4086727;29;20036;-76
2022/11/08 06:38:55;;;;;;;27.23;4.95;;;12.80;99.90;;;12.09;100.00;99975.28;4086687;29;20048;-75
2022/11/08 06:41:00;;;;;;;;;;;12.80;99.90;;;12.07;100.00;99984.38;4087719;29;20028;-76
2022/11/08 06:43:01;;;;;;;28.98;5.32;;;12.80;99.90;;;12.04;100.00;99988.19;4088163;29;19917;-75
2022/11/08 06:45:02;;;;;;;32.08;6.72;;;12.80;99.90;;;12.08;100.00;99986.84;4071088;29;20616;-75
2022/11/08 06:47:03;;;;;;;21.67;3.80;;;12.80;99.90;;;12.07;100.00;99987.00;4102982;29;20110;-76
2022/11/08 06:49:03;;;;;;;32.28;4.68;;;12.80;99.90;;;12.10;100.00;99990.13;4088380;29;20070;-76
2022/11/08 06:51:04;;;;;;;24.05;5.28;;;12.80;99.90;;;12.12;100.00;99996.06;4102951;29;20030;-76
2022/11/08 06:53:09;;;;;;;25.80;3.85;;;12.80;99.90;;;12.21;100.00;99984.34;4088231;29;20135;-75
2022/11/08 06:55:10;;;;;;;24.65;4.68;;;12.90;99.90;;;12.24;100.00;99990.28;4088259;29;20030;-75
2022/11/08 06:57:11;;;;;;;25.10;4.55;;;12.90;99.90;;;12.23;100.00;99991.28;4102898;29;20034;-76
2022/11/08 06:59:12;;;;;;;25.42;4.50;;;12.90;99.90;;;12.28;100.00;99995.00;4071251;29;20024;-76
2022/11/08 07:01:13;;;;;;;25.70;4.57;;;13.00;99.90;;;12.36;100.00;99994.09;4088116;29;20036;-76
2022/11/08 07:03:15;;;;;;;28.25;5.32;;;13.00;99.90;;;12.33;100.00;99983.91;4088168;29;20043;-76
2022/11/08 07:05:16;;;;;;;21.23;3.97;;;13.00;99.90;;;12.35;100.00;99984.50;4102866;29;20047;-76
2022/11/08 07:07:17;;;;;;;27.65;5.22;;;13.00;99.90;;;12.34;100.00;99978.41;4102800;29;20056;-76
2022/11/08 07:09:18;;;;;;;29.00;4.30;;;13.10;99.90;;;12.35;100.00;99980.06;4087628;29;20023;-76
2022/11/08 07:11:19;;;;;;;38.45;4.80;;;13.10;99.90;;;12.41;100.00;99979.31;4087483;29;20028;-75
2022/11/08 07:13:20;;;;;;;26.52;4.03;;;13.10;99.90;;;12.41;100.00;99989.06;4085060;29;20039;-76
2022/11/08 07:15:21;;;;;;;34.63;6.13;;;13.20;99.90;;;12.43;100.00;99993.16;4072407;29;20028;-76
2022/11/08 07:17:22;;;;;;;32.30;5.15;;;13.10;99.90;;;12.39;100.00;99983.16;4081591;29;20372;-76
2022/11/08 07:19:23;;;;;;;24.45;4.88;;;13.20;99.90;;;12.48;100.00;99989.97;4087448;29;20068;-76
2022/11/08 07:21:24;;;;;;;28.88;4.68;;;13.20;99.90;;;12.44;100.00;99989.50;4072389;29;20043;-76
2022/11/08 07:23:25;;;;;;;24.25;5.30;;;13.20;99.90;;;12.51;100.00;99995.72;4086983;29;20032;-76
2022/11/08 07:25:27;;;;;;;28.63;4.25;;;13.20;99.90;;;12.52;100.00;99992.03;4055306;29;20035;-76
2022/11/08 07:27:29;;;;;;;17.52;4.28;;;13.30;99.90;;;12.52;100.00;99991.22;4098476;28;20039;-76
2022/11/08 07:29:29;;;;;;;19.52;5.47;;;13.30;99.90;;;12.59;100.00;100008.00;4087941;29;20091;-76
2022/11/08 07:31:30;;;;;;;29.27;5.20;;;13.30;99.90;;;12.66;100.00;100003.59;4102448;28;20043;-76
2022/11/08 07:33:32;;;;;;;25.02;4.78;;;13.30;99.90;;;12.68;100.00;99999.75;4086807;29;20404;-76
2022/11/08 07:35:33;;;;;;;28.50;4.70;;;13.40;99.90;;;12.80;100.00;100000.09;4086618;29;20032;-76
2022/11/08 07:37:34;;;;;;;26.48;4.30;;;13.50;99.90;;;12.84;100.00;99989.94;4086990;29;20574;-76
2022/11/08 07:39:35;;;;;;;22.75;4.25;;;13.60;99.90;;;12.84;100.00;99989.94;4072191;29;20101;-76
2022/11/08 07:41:36;;;;;;;28.50;6.72;;;13.60;99.90;;;12.95;100.00;99987.59;4072137;29;20039;-76
2022/11/08 07:43:36;;;;;;;25.52;5.70;;;13.70;99.90;;;13.01;100.00;99991.31;4070525;29;20488;-76
2022/11/08 07:45:38;;;;;;;23.92;4.32;;;13.70;99.90;;;13.02;100.00;99975.22;4055140;29;20076;-75
2022/11/08 07:47:39;;;;;;;24.48;4.95;;;13.80;99.90;;;12.99;100.00;99996.00;4079627;29;20043;-76
2022/11/08 07:49:39;;;;;;;49.03;21.55;;;13.70;99.90;;;13.06;100.00;100000.31;4083451;29;20020;-78
2022/11/08 07:51:40;;;;;;;28.67;4.97;;;13.80;99.90;;;13.14;100.00;99997.56;4074728;29;20028;-78
2022/11/08 07:53:43;;;;;;;27.88;5.00;;;13.80;99.90;;;13.20;100.00;99993.38;4073635;29;20498;-78
2022/11/08 07:55:46;;;;;;;25.35;5.07;;;13.90;99.90;;;13.26;100.00;100004.00;4089464;29;20034;-78
2022/11/08 07:57:47;;;;;;;29.52;4.13;;;13.90;99.90;;;13.34;100.00;99999.59;4089238;29;20028;-78
2022/11/08 07:59:48;;;;;;;26.90;5.53;;;14.00;99.90;;;13.32;100.00;100005.88;4089448;29;20110;-78
2022/11/08 08:01:49;;;;;;;22.45;3.80;;;14.00;99.90;;;13.39;100.00;100005.13;4074018;29;20029;-78
2022/11/08 08:03:49;;;;;;;17.50;3.72;;;14.10;99.90;;;13.40;100.00;100001.47;4074857;29;20032;-78
2022/11/08 08:05:52;;;;;;;17.23;3.30;;;14.00;99.90;;;13.39;100.00;99999.81;4089619;29;20034;-78
2022/11/08 08:07:57;;;;;;;22.55;4.25;;;14.10;99.90;;;13.28;100.00;99988.75;4074587;29;20107;-78
2022/11/08 08:09:58;;;;;;;28.70;5.70;;;14.10;99.90;;;13.28;100.00;100004.66;4089551;29;20024;-78
2022/11/08 08:11:59;;;;;;;19.95;3.97;;;14.00;99.90;;;13.25;100.00;99994.44;4089389;29;20452;-78
2022/11/08 08:14:00;;;;;;;21.17;3.35;;;14.00;99.90;;;13.35;100.00;99995.94;4073405;29;20395;-78
2022/11/08 08:16:01;;;;;;;15.65;3.08;;;14.00;99.90;;;13.25;100.00;100005.03;4074740;29;20035;-78
2022/11/08 08:18:05;;;;;;;18.92;3.15;;;14.00;99.90;;;13.19;100.00;99999.66;4074884;29;20044;-78
2022/11/08 08:20:07;;;;;;;21.35;4.25;;;14.00;99.90;;;13.27;100.00;100004.81;4074727;29;20032;-78
2022/11/08 08:22:08;;;;;;;15.45;2.58;;;14.00;99.90;;;13.32;100.00;100014.84;4089210;29;20032;-78
2022/11/08 08:24:09;;;;;;;23.65;3.83;;;14.00;99.90;;;13.34;100.00;100012.81;4074433;29;20067;-78
2022/11/08 08:26:10;;;;;;;21.38;4.20;;;14.10;99.90;;;13.38;100.00;100024.69;4074341;29;20040;-78
2022/11/08 08:28:11;;;;;;;20.67;5.38;;;14.00;99.90;;;13.26;100.00;100032.34;4088879;29;20444;-78
2022/11/08 08:30:13;;;;;;;17.50;3.92;;;14.00;99.90;;;13.20;100.00;100033.88;4079546;29;20109;-78
2022/11/08 08:32:14;;;;;;;12.93;3.13;;;14.00;99.90;;;13.17;100.00;100030.81;4104798;28;20034;-78
2022/11/08 08:34:15;;;;;;;20.65;5.00;;;13.90;99.90;;;13.18;100.00;100038.56;4104858;29;20027;-78
2022/11/08 08:36:15;;;;;;;19.05;3.58;;;13.90;99.90;;;13.00;100.00;100040.78;4090187;29;20088;-78
2022/11/08 08:38:16;;;;;;;21.98;5.15;;;13.80;99.90;;;13.08;100.00;100055.78;4104654;29;20031;-78
2022/11/08 08:40:17;;;;;;;24.65;4.80;;;13.80;99.90;;;13.01;100.00;100050.41;4089983;29;20031;-78
2022/11/08 08:42:18;;;;;;;25.23;4.53;;;13.80;99.90;;;12.97;100.00;100054.41;4104691;29;20031;-78
2022/11/08 08:44:19;;;;;;;22.50;5.10;;;13.70;99.90;;;12.97;100.00;100062.34;4089819;29;20032;-78
2022/11/08 08:46:20;;;;;;;19.73;5.10;;;13.70;99.90;;;12.98;100.00;100050.78;4088925;29;20032;-78